createdAt,value
2023-04-29T00:02:46.038Z,10.08
2023-04-29T00:05:33.871Z,10.06
2023-04-29T00:08:22.039Z,10.04
2023-04-29T00:11:11.411Z,10.10
2023-04-29T00:14:02.636Z,10.04
2023-04-29T00:16:50.595Z,9.92
2023-04-29T00:19:38.550Z,9.89
2023-04-29T00:22:26.710Z,9.91
2023-04-29T00:25:14.859Z,9.89
2023-04-29T00:28:03.405Z,9.94
2023-04-29T00:30:53.381Z,9.93
2023-04-29T00:33:41.052Z,9.87
2023-04-29T00:36:29.410Z,9.84
2023-04-29T00:39:17.136Z,9.83
2023-04-29T00:42:05.064Z,9.84
2023-04-29T00:44:52.994Z,9.83
2023-04-29T00:47:42.453Z,9.87
2023-04-29T00:50:30.798Z,9.83
2023-04-29T00:53:18.619Z,9.80
2023-04-29T00:56:07.512Z,9.81
2023-04-29T00:58:55.889Z,9.89
2023-04-29T01:01:44.718Z,9.91
2023-04-29T01:04:33.970Z,9.89
2023-04-29T01:07:31.165Z,9.63
2023-04-29T01:10:28.748Z,9.80
2023-04-29T01:13:21.779Z,9.64
2023-04-29T01:16:18.615Z,9.64
2023-04-29T01:19:17.914Z,9.69
2023-04-29T01:22:07.223Z,9.61
2023-04-29T01:24:59.040Z,9.67
2023-04-29T01:27:53.942Z,9.68
2023-04-29T01:30:51.402Z,9.68
2023-04-29T01:33:55.839Z,9.53
2023-04-29T01:37:02.460Z,9.52
2023-04-29T01:40:06.673Z,9.48
2023-04-29T01:43:03.971Z,9.43
2023-04-29T01:45:53.421Z,9.39
2023-04-29T01:48:41.663Z,9.34
2023-04-29T01:51:29.825Z,9.32
2023-04-29T01:54:17.787Z,9.26
2023-04-29T01:57:07.029Z,9.22
2023-04-29T01:59:54.900Z,9.19
2023-04-29T02:02:42.788Z,9.14
2023-04-29T02:05:32.505Z,9.12
2023-04-29T02:08:20.544Z,9.06
2023-04-29T02:11:08.502Z,9.05
2023-04-29T02:13:57.882Z,9.01
2023-04-29T02:16:46.517Z,9.00
2023-04-29T02:19:34.261Z,8.98
2023-04-29T02:22:22.300Z,8.98
2023-04-29T02:25:19.517Z,8.95
2023-04-29T02:28:07.318Z,8.92
2023-04-29T02:30:56.992Z,8.90
2023-04-29T02:33:45.003Z,8.87
2023-04-29T02:36:33.353Z,8.85
2023-04-29T02:39:21.111Z,8.80
2023-04-29T02:42:09.093Z,8.76
2023-04-29T02:44:57.000Z,8.72
2023-04-29T02:47:46.320Z,8.68
2023-04-29T02:50:34.184Z,8.63
2023-04-29T02:53:24.768Z,8.58
2023-04-29T02:56:12.733Z,8.55
2023-04-29T02:59:00.644Z,8.51
2023-04-29T03:01:48.662Z,8.47
2023-04-29T03:04:39.993Z,8.44
2023-04-29T03:07:29.953Z,8.40
2023-04-29T03:10:18.158Z,8.39
2023-04-29T03:13:06.193Z,8.39
2023-04-29T03:15:54.130Z,8.35
2023-04-29T03:18:42.059Z,8.33
2023-04-29T03:21:31.350Z,8.33
2023-04-29T03:24:19.223Z,8.31
2023-04-29T03:27:07.338Z,8.30
2023-04-29T03:29:55.532Z,8.31
2023-04-29T03:32:43.923Z,8.29
2023-04-29T03:35:31.942Z,8.31
2023-04-29T03:38:21.312Z,8.35
2023-04-29T03:41:10.293Z,8.39
2023-04-29T03:44:00.757Z,8.39
2023-04-29T03:46:48.865Z,8.36
2023-04-29T03:49:37.580Z,8.34
2023-04-29T03:52:25.753Z,8.32
2023-04-29T03:55:14.842Z,8.30
2023-04-29T03:58:02.485Z,8.31
2023-04-29T04:00:50.591Z,8.29
2023-04-29T04:03:38.775Z,8.29
2023-04-29T04:06:27.067Z,8.30
2023-04-29T04:09:14.587Z,8.27
2023-04-29T04:12:03.965Z,8.27
2023-04-29T04:14:51.808Z,8.25
2023-04-29T04:17:40.358Z,8.25
2023-04-29T04:20:28.175Z,8.25
2023-04-29T04:23:16.261Z,8.26
2023-04-29T04:26:04.069Z,8.28
2023-04-29T04:28:53.107Z,8.26
2023-04-29T04:31:41.287Z,8.30
2023-04-29T04:34:29.187Z,8.42
2023-04-29T04:37:17.630Z,8.33
2023-04-29T04:40:06.597Z,8.38
2023-04-29T04:42:55.221Z,8.36
2023-04-29T04:45:44.409Z,8.36
2023-04-29T04:48:32.241Z,8.40
2023-04-29T04:51:20.858Z,8.43
2023-04-29T04:54:08.689Z,8.58
2023-04-29T04:56:56.597Z,8.53
2023-04-29T04:59:44.560Z,8.60
2023-04-29T05:02:34.064Z,8.73
2023-04-29T05:05:21.890Z,8.76
2023-04-29T05:08:09.636Z,8.70
2023-04-29T05:10:58.401Z,8.98
2023-04-29T05:13:46.068Z,9.13
2023-04-29T05:16:34.244Z,9.20
2023-04-29T05:19:23.578Z,9.30
2023-04-29T05:22:11.579Z,9.38
2023-04-29T05:25:03.001Z,9.47
2023-04-29T05:27:51.471Z,9.56
2023-04-29T05:30:39.610Z,9.72
2023-04-29T05:33:27.268Z,9.78
2023-04-29T05:36:16.593Z,9.86
2023-04-29T05:39:04.643Z,9.44
2023-04-29T05:41:52.732Z,9.61
2023-04-29T05:44:40.715Z,9.79
2023-04-29T05:47:28.987Z,10.24
2023-04-29T05:50:17.177Z,10.08
2023-04-29T05:53:06.250Z,10.01
2023-04-29T05:55:54.088Z,10.08
2023-04-29T05:58:42.117Z,10.25
2023-04-29T06:01:30.189Z,10.25
2023-04-29T06:04:18.442Z,10.33
2023-04-29T06:07:06.138Z,10.41
2023-04-29T06:09:56.950Z,10.57
2023-04-29T06:12:44.989Z,10.55
2023-04-29T06:15:33.345Z,10.65
2023-04-29T06:18:21.365Z,10.73
2023-04-29T06:21:09.432Z,10.81
2023-04-29T06:23:57.443Z,10.91
2023-04-29T06:26:46.966Z,10.99
2023-04-29T06:29:34.809Z,11.07
2023-04-29T06:32:22.913Z,11.23
2023-04-29T06:35:11.286Z,11.31
2023-04-29T06:37:59.599Z,11.49
2023-04-29T06:40:47.646Z,11.48
2023-04-29T06:43:37.176Z,11.56
2023-04-29T06:46:24.932Z,11.64
2023-04-29T06:49:13.251Z,11.72
2023-04-29T06:52:02.244Z,11.80
2023-04-29T06:54:50.327Z,11.92
2023-04-29T06:57:38.451Z,12.04
2023-04-29T07:00:27.428Z,12.15
2023-04-29T07:03:15.587Z,12.23
2023-04-29T07:06:06.134Z,12.31
2023-04-29T07:08:55.498Z,12.40
2023-04-29T07:11:44.694Z,12.59
2023-04-29T07:14:33.043Z,12.63
2023-04-29T07:17:22.118Z,12.73
2023-04-29T07:20:11.178Z,12.82
2023-04-29T07:22:58.934Z,12.89
2023-04-29T07:25:47.053Z,13.01
2023-04-29T07:28:34.937Z,13.13
2023-04-29T07:31:22.941Z,13.20
2023-04-29T07:34:12.446Z,13.37
2023-04-29T07:37:00.680Z,13.45
2023-04-29T07:39:48.687Z,13.52
2023-04-29T07:42:36.466Z,13.64
2023-04-29T07:45:24.344Z,13.78
2023-04-29T07:48:12.318Z,13.90
2023-04-29T07:51:01.744Z,13.97
2023-04-29T07:53:49.663Z,14.06
2023-04-29T07:56:37.678Z,14.19
2023-04-29T07:59:25.382Z,14.31
2023-04-29T08:02:13.861Z,14.51
2023-04-29T08:05:02.947Z,14.67
2023-04-29T08:07:53.333Z,14.78
2023-04-29T08:10:43.915Z,14.90
2023-04-29T08:13:32.039Z,14.99
2023-04-29T08:16:21.628Z,15.12
2023-04-29T08:19:09.535Z,15.23
2023-04-29T08:21:57.420Z,15.38
2023-04-29T08:24:46.812Z,15.44
2023-04-29T08:27:34.927Z,15.51
2023-04-29T08:30:22.832Z,15.55
2023-04-29T08:33:13.119Z,15.51
2023-04-29T08:36:03.586Z,15.50
2023-04-29T08:38:52.701Z,15.55
2023-04-29T08:41:44.194Z,15.61
2023-04-29T08:44:34.101Z,15.59
2023-04-29T08:47:23.390Z,15.63
2023-04-29T08:50:20.934Z,15.67
2023-04-29T08:53:09.177Z,15.62
2023-04-29T08:55:59.234Z,15.62
2023-04-29T08:58:51.930Z,15.61
2023-04-29T09:01:41.934Z,15.55
2023-04-29T09:04:39.204Z,15.52
2023-04-29T09:07:28.441Z,15.54
2023-04-29T09:10:17.015Z,15.57
2023-04-29T09:13:05.346Z,15.64
2023-04-29T09:15:55.277Z,15.70
2023-04-29T09:18:47.591Z,15.81
2023-04-29T09:21:56.884Z,16.06
2023-04-29T09:24:45.594Z,16.19
2023-04-29T09:27:34.623Z,16.32
2023-04-29T09:30:48.199Z,16.51
2023-04-29T09:36:48.207Z,16.84
2023-04-29T09:39:54.854Z,16.99
2023-04-29T09:43:06.937Z,17.12
2023-04-29T09:46:38.408Z,17.28
2023-04-29T09:49:30.838Z,17.39
2023-04-29T09:52:38.641Z,17.45
2023-04-29T09:55:36.225Z,17.59
2023-04-29T09:58:46.473Z,17.69
2023-04-29T10:03:01.024Z,17.86
2023-04-29T10:05:23.205Z,17.90
2023-04-29T10:08:13.014Z,17.99
2023-04-29T10:11:28.670Z,18.11
2023-04-29T10:14:58.065Z,18.17
2023-04-29T10:18:16.773Z,18.20
2023-04-29T10:21:10.588Z,18.30
2023-04-29T10:24:03.537Z,18.43
2023-04-29T10:26:54.037Z,18.51
2023-04-29T10:29:50.900Z,18.52
2023-04-29T10:32:50.599Z,18.58
2023-04-29T10:35:40.518Z,18.60
2023-04-29T10:38:32.332Z,18.68
2023-04-29T10:41:25.509Z,18.69
2023-04-29T10:44:13.399Z,18.70
2023-04-29T10:47:20.459Z,18.75
2023-04-29T10:50:09.078Z,18.87
2023-04-29T10:52:57.871Z,18.81
2023-04-29T10:55:49.812Z,18.80
2023-04-29T10:58:44.533Z,18.79
2023-04-29T11:01:59.568Z,18.75
2023-04-29T11:05:08.495Z,18.69
2023-04-29T11:08:12.749Z,18.70
2023-04-29T11:11:03.976Z,18.61
2023-04-29T11:13:53.746Z,18.64
2023-04-29T11:16:49.880Z,18.67
2023-04-29T11:19:42.188Z,18.64
2023-04-29T11:22:33.680Z,18.73
2023-04-29T11:25:23.656Z,18.85
2023-04-29T11:28:12.905Z,18.85
2023-04-29T11:31:03.800Z,18.75
2023-04-29T11:33:51.727Z,18.78
2023-04-29T11:36:39.420Z,18.89
2023-04-29T11:39:27.868Z,18.91
2023-04-29T11:42:20.424Z,18.84
2023-04-29T11:45:09.363Z,18.81
2023-04-29T11:47:58.880Z,18.90
2023-04-29T11:50:47.796Z,18.91
2023-04-29T11:53:38.865Z,18.81
2023-04-29T11:56:27.152Z,18.79
2023-04-29T11:59:15.066Z,18.69
2023-04-29T12:02:03.355Z,18.58
2023-04-29T12:04:53.149Z,18.54
2023-04-29T12:07:41.499Z,18.42
2023-04-29T12:10:29.869Z,18.38
2023-04-29T12:13:19.611Z,18.34
2023-04-29T12:16:11.427Z,18.39
2023-04-29T12:19:01.074Z,18.30
2023-04-29T12:21:58.338Z,18.14
2023-04-29T12:24:46.261Z,18.04
2023-04-29T12:27:34.966Z,17.98
2023-04-29T12:30:23.124Z,17.92
2023-04-29T12:33:12.728Z,17.83
2023-04-29T12:36:02.083Z,17.77
2023-04-29T12:38:54.573Z,17.73
2023-04-29T12:41:44.211Z,17.77
2023-04-29T12:44:37.980Z,17.77
2023-04-29T12:47:33.291Z,17.79
2023-04-29T12:50:21.880Z,17.81
2023-04-29T12:53:11.796Z,17.82
2023-04-29T12:56:01.639Z,17.87
2023-04-29T12:58:49.949Z,17.90
2023-04-29T13:01:38.042Z,17.89
2023-04-29T13:04:26.132Z,17.89
2023-04-29T13:07:14.195Z,17.90
2023-04-29T13:10:02.506Z,17.98
2023-04-29T13:12:52.128Z,18.06
2023-04-29T13:15:40.180Z,18.16
2023-04-29T13:18:28.032Z,18.15
2023-04-29T13:21:16.491Z,18.15
2023-04-29T13:24:04.264Z,18.17
2023-04-29T13:26:53.042Z,18.17
2023-04-29T13:29:42.558Z,18.18
2023-04-29T13:32:43.231Z,18.13
2023-04-29T13:35:35.985Z,18.12
2023-04-29T13:38:23.985Z,18.11
2023-04-29T13:41:16.864Z,18.11
2023-04-29T13:44:07.659Z,18.10
2023-04-29T13:47:08.293Z,18.08
2023-04-29T14:01:55.250Z,17.78
2023-04-29T14:04:29.847Z,17.69
2023-04-29T14:07:17.933Z,17.64
2023-04-29T14:10:06.672Z,17.57
2023-04-29T14:12:54.604Z,17.55
2023-04-29T14:15:42.711Z,17.53
2023-04-29T14:18:30.735Z,17.50
2023-04-29T14:21:22.458Z,17.47
2023-04-29T14:24:10.517Z,17.47
2023-04-29T14:26:59.134Z,17.40
2023-04-29T14:29:47.441Z,17.36
2023-04-29T14:32:35.702Z,17.29
2023-04-29T14:35:24.148Z,17.21
2023-04-29T14:38:14.390Z,17.07
2023-04-29T14:41:02.554Z,17.06
2023-04-29T14:43:50.552Z,17.02
2023-04-29T14:46:38.682Z,16.95
2023-04-29T14:49:26.706Z,16.89
2023-04-29T14:52:14.569Z,16.84
2023-04-29T14:55:04.502Z,16.81
2023-04-29T14:57:52.215Z,16.83
2023-04-29T15:00:40.299Z,16.83
2023-04-29T15:03:28.273Z,16.81
2023-04-29T15:06:16.469Z,16.82
2023-04-29T15:09:04.947Z,16.80
2023-04-29T15:11:54.385Z,16.78
2023-04-29T15:14:42.456Z,16.76
2023-04-29T15:17:30.413Z,16.74
2023-04-29T15:20:18.377Z,16.71
2023-04-29T15:23:08.436Z,16.63
2023-04-29T15:25:57.529Z,16.57
2023-04-29T15:28:47.216Z,16.46
2023-04-29T15:31:35.195Z,16.38
2023-04-29T15:34:23.258Z,16.29
2023-04-29T15:37:11.467Z,16.23
2023-04-29T15:40:00.641Z,16.13
2023-04-29T15:42:48.738Z,16.08
2023-04-29T15:45:42.194Z,16.01
2023-04-29T15:48:32.145Z,15.97
2023-04-29T15:51:20.230Z,15.91
2023-04-29T15:54:08.353Z,15.83
2023-04-29T15:56:57.566Z,15.78
2023-04-29T15:59:45.640Z,15.71
2023-04-29T16:02:35.099Z,15.64
2023-04-29T16:05:22.969Z,15.59
2023-04-29T16:08:11.120Z,15.55
2023-04-29T16:10:59.552Z,15.50
2023-04-29T16:13:47.954Z,15.46
2023-04-29T16:16:36.121Z,15.43
2023-04-29T16:19:25.324Z,15.42
2023-04-29T16:22:13.405Z,15.42
2023-04-29T16:25:01.715Z,15.42
2023-04-29T16:27:49.747Z,15.41
2023-04-29T16:30:38.020Z,15.41
2023-04-29T16:33:26.099Z,15.41
2023-04-29T16:36:15.794Z,15.37
2023-04-29T16:39:04.594Z,15.40
2023-04-29T16:41:52.795Z,15.40
2023-04-29T16:44:40.825Z,15.41
2023-04-29T16:47:28.937Z,15.41
2023-04-29T16:50:19.673Z,15.40
2023-04-29T16:53:09.021Z,15.40
2023-04-29T16:55:57.428Z,15.39
2023-04-29T16:58:45.761Z,15.37
2023-04-29T17:01:33.474Z,15.34
2023-04-29T17:04:21.445Z,15.30
2023-04-29T17:07:10.074Z,15.26
2023-04-29T17:09:59.237Z,15.23
2023-04-29T17:12:47.261Z,15.18
2023-04-29T17:15:35.556Z,15.12
2023-04-29T17:18:23.717Z,15.06
2023-04-29T17:21:11.693Z,15.01
2023-04-29T17:24:00.021Z,14.96
2023-04-29T17:26:49.883Z,14.90
2023-04-29T17:29:38.471Z,14.87
2023-04-29T17:32:29.325Z,14.76
2023-04-29T17:35:17.361Z,14.72
2023-04-29T17:38:05.670Z,14.66
2023-04-29T17:40:53.507Z,14.61
2023-04-29T17:43:43.044Z,14.55
2023-04-29T17:46:31.433Z,14.50
2023-04-29T17:49:19.558Z,14.45
2023-04-29T17:52:09.996Z,14.41
2023-04-29T17:54:57.972Z,14.38
2023-04-29T17:57:46.340Z,14.36
2023-04-29T18:00:36.192Z,14.30
2023-04-29T18:03:27.109Z,14.23
2023-04-29T18:06:15.911Z,14.19
2023-04-29T18:09:04.084Z,14.13
2023-04-29T18:11:52.391Z,14.10
2023-04-29T18:14:40.465Z,14.06
2023-04-29T18:17:29.977Z,14.02
2023-04-29T18:20:18.033Z,13.98
2023-04-29T18:23:06.453Z,13.94
2023-04-29T18:25:54.830Z,13.89
2023-04-29T18:28:43.303Z,13.84
2023-04-29T18:31:31.650Z,13.82
2023-04-29T18:34:20.858Z,13.78
2023-04-29T18:37:08.811Z,13.70
2023-04-29T18:39:56.924Z,13.65
2023-04-29T18:42:45.237Z,13.57
2023-04-29T18:45:33.320Z,13.54
2023-04-29T18:48:21.453Z,13.50
2023-04-29T18:51:11.100Z,13.47
2023-04-29T18:53:59.130Z,13.41
2023-04-29T18:56:48.899Z,13.36
2023-04-29T18:59:38.014Z,13.35
2023-04-29T19:02:26.389Z,13.32
2023-04-29T19:05:14.448Z,13.25
2023-04-29T19:08:03.896Z,13.23
2023-04-29T19:10:53.376Z,13.17
2023-04-29T19:13:41.185Z,13.14
2023-04-29T19:16:29.410Z,13.10
2023-04-29T19:19:17.416Z,13.07
2023-04-29T19:22:05.519Z,13.03
2023-04-29T19:24:54.751Z,13.00
2023-04-29T19:27:45.071Z,12.95
2023-04-29T19:30:33.541Z,12.89
2023-04-29T19:33:21.402Z,12.87
2023-04-29T19:36:11.357Z,12.77
2023-04-29T19:38:59.533Z,12.77
2023-04-29T19:41:48.605Z,12.76
2023-04-29T19:44:36.413Z,12.74
2023-04-29T19:47:24.885Z,12.68
2023-04-29T19:50:12.944Z,12.61
2023-04-29T19:53:01.164Z,12.57
2023-04-29T19:55:51.594Z,12.52
2023-04-29T19:58:41.101Z,12.46
2023-04-29T20:01:29.172Z,12.42
2023-04-29T20:04:16.948Z,12.41
2023-04-29T20:07:04.809Z,12.37
2023-04-29T20:09:52.838Z,12.34
2023-04-29T20:12:40.715Z,12.30
2023-04-29T20:15:30.776Z,12.27
2023-04-29T20:18:18.983Z,12.25
2023-04-29T20:21:06.928Z,12.23
2023-04-29T20:23:54.831Z,12.19
2023-04-29T20:26:42.702Z,12.16
2023-04-29T20:29:30.589Z,12.13
2023-04-29T20:32:19.962Z,12.10
2023-04-29T20:35:08.246Z,12.08
2023-04-29T20:37:56.592Z,12.07
2023-04-29T20:40:44.556Z,12.05
2023-04-29T20:43:33.168Z,12.03
2023-04-29T20:46:21.166Z,11.99
2023-04-29T20:49:10.704Z,11.95
2023-04-29T20:51:58.821Z,11.94
2023-04-29T20:54:47.101Z,11.92
2023-04-29T20:57:35.165Z,11.90
2023-04-29T21:00:23.062Z,11.88
2023-04-29T21:03:11.517Z,11.86
2023-04-29T21:06:01.215Z,11.84
2023-04-29T21:08:49.426Z,11.82
2023-04-29T21:11:37.193Z,11.80
2023-04-29T21:14:25.422Z,11.77
2023-04-29T21:17:13.869Z,11.75
2023-04-29T21:20:01.744Z,11.73
2023-04-29T21:22:51.342Z,11.72
2023-04-29T21:25:39.513Z,11.71
2023-04-29T21:28:27.819Z,11.68
2023-04-29T21:31:16.563Z,11.69
2023-04-29T21:34:04.546Z,11.67
2023-04-29T21:36:52.251Z,11.65
2023-04-29T21:39:41.849Z,11.63
2023-04-29T21:42:30.012Z,11.59
2023-04-29T21:45:18.523Z,11.57
2023-04-29T21:48:15.638Z,11.56
2023-04-29T21:51:05.299Z,11.52
2023-04-29T21:53:53.713Z,11.51
2023-04-29T21:56:43.196Z,11.49
2023-04-29T21:59:34.311Z,11.48
2023-04-29T22:02:25.123Z,11.49
2023-04-29T22:05:13.127Z,11.50
2023-04-29T22:08:03.115Z,11.49
2023-04-29T22:10:51.252Z,11.45
2023-04-29T22:13:40.704Z,11.43
2023-04-29T22:16:28.432Z,11.42
2023-04-29T22:19:16.686Z,11.39
2023-04-29T22:22:04.773Z,11.40
2023-04-29T22:24:52.608Z,11.38
2023-04-29T22:27:40.550Z,11.37
2023-04-29T22:30:29.836Z,11.35
2023-04-29T22:33:17.742Z,11.35
2023-04-29T22:36:06.107Z,11.36
2023-04-29T22:38:54.280Z,11.37
2023-04-29T22:41:42.228Z,11.34
2023-04-29T22:44:30.248Z,11.33
2023-04-29T22:47:19.701Z,11.30
2023-04-29T22:50:08.786Z,11.28
2023-04-29T22:52:56.584Z,11.22
2023-04-29T22:55:51.576Z,11.19
2023-04-29T22:58:39.531Z,11.17
2023-04-29T23:01:27.246Z,11.15
2023-04-29T23:04:16.644Z,11.15
2023-04-29T23:07:04.581Z,11.14
2023-04-29T23:09:53.270Z,11.15
2023-04-29T23:12:41.140Z,11.16
2023-04-29T23:15:29.690Z,11.14
2023-04-29T23:18:17.423Z,11.11
2023-04-29T23:21:07.184Z,11.08
2023-04-29T23:23:55.707Z,11.05
2023-04-29T23:26:43.669Z,11.02
2023-04-29T23:29:34.246Z,11.02
2023-04-29T23:32:22.223Z,10.99
2023-04-29T23:35:11.350Z,10.99
2023-04-29T23:38:00.667Z,10.98
2023-04-29T23:40:48.890Z,10.94
2023-04-29T23:43:36.925Z,10.91
2023-04-29T23:46:25.506Z,10.88
2023-04-29T23:49:13.346Z,10.92
2023-04-29T23:52:01.397Z,10.89
2023-04-29T23:54:50.784Z,10.84
2023-04-29T23:57:38.782Z,10.83
